KPQI/PQI METAR and TAF weather

Enter ICAO airport designator
Station Type Date Time Source
KPQI METAR 2020/09/26 23:56 UTC NOAA

KPQI 262356Z AUTO 19011KT 10SM CLR 21/12 A2998 RMK AO2 SLP175 T02110122 10261 20211 51007


Station Type Date Time Source
KPQI Decoded METAR 2020/09/26 23:56 UTC NOAA

Presque Isle, ME, United States (KPQI) 46-41N 068-03W 146M
Sep 26, 2020 - 07:56 PM EDT / 2020.09.26 2356 UTC
Wind: from the S (190 degrees) at 13 MPH (11 KT):0
Visibility: 10 mile(s):0
Sky conditions: clear
Temperature: 70.0 F (21.1 C)
Dew Point: 54.0 F (12.2 C)
Relative Humidity: 56%
Pressure (altimeter): 29.98 in. Hg (1015 hPa)
Pressure tendency: 0.02 inches (0.7 hPa) higher than three hours ago
ob: KPQI 262356Z AUTO 19011KT 10SM CLR 21/12 A2998 RMK AO2 SLP175 T02110122 10261 20211 51007
cycle: 0

Station Type Date Time Source
KPQI TAF 2020/09/26 18:45 UTC NOAA

TAF KPQI 261743Z 2618/2718 22010G17KT P6SM SCT045
FM270600 18006KT P6SM BKN026 WS020/25030KT
FM270800 18006KT P6SM BKN015 WS020/25030KT
FM271000 18008KT 3SM BR OVC006
FM271400 18009KT P6SM BKN012
FM271600 19012G20KT P6SM BKN025

Example: see airport list